createdAt,value
2023-02-26T00:01:30.330Z,82.14
2023-02-26T00:04:02.627Z,81.85
2023-02-26T00:06:38.744Z,81.88
2023-02-26T00:09:07.371Z,81.65
2023-02-26T00:11:36.423Z,81.65
2023-02-26T00:14:11.259Z,81.34
2023-02-26T00:16:41.221Z,81.13
2023-02-26T00:19:10.778Z,80.84
2023-02-26T00:21:39.979Z,80.65
2023-02-26T00:24:08.460Z,80.61
2023-02-26T00:26:38.478Z,80.60
2023-02-26T00:29:07.642Z,80.81
2023-02-26T00:31:45.906Z,80.82
2023-02-26T00:34:15.197Z,80.53
2023-02-26T00:37:07.328Z,80.83
2023-02-26T00:39:46.559Z,80.70
2023-02-26T00:42:15.705Z,80.82
2023-02-26T00:44:44.585Z,80.78
2023-02-26T00:47:40.892Z,80.62
2023-02-26T00:50:25.962Z,80.66
2023-02-26T00:52:57.408Z,80.97
2023-02-26T00:55:27.238Z,81.05
2023-02-26T00:57:58.000Z,81.00
2023-02-26T01:00:26.542Z,80.99
2023-02-26T01:02:55.402Z,81.07
2023-02-26T01:05:24.748Z,81.23
2023-02-26T01:08:27.009Z,81.17
2023-02-26T01:10:55.731Z,80.97
2023-02-26T01:13:24.388Z,80.93
2023-02-26T01:16:03.042Z,80.70
2023-02-26T01:18:44.013Z,80.48
2023-02-26T01:21:17.273Z,80.36
2023-02-26T01:23:47.817Z,80.61
2023-02-26T01:26:20.893Z,80.47
2023-02-26T01:28:49.886Z,80.38
2023-02-26T01:31:36.841Z,80.11
2023-02-26T01:34:43.583Z,80.26
2023-02-26T01:37:26.918Z,80.13
2023-02-26T01:40:20.000Z,79.95
2023-02-26T01:42:51.681Z,80.28
2023-02-26T01:45:30.375Z,80.27
2023-02-26T01:48:07.043Z,80.38
2023-02-26T01:50:36.266Z,80.50
2023-02-26T01:53:25.799Z,80.45
2023-02-26T01:56:06.652Z,80.26
2023-02-26T01:58:35.713Z,80.03
2023-02-26T02:01:04.675Z,80.30
2023-02-26T02:03:35.257Z,80.15
2023-02-26T02:06:08.993Z,80.18
2023-02-26T02:08:40.136Z,80.03
2023-02-26T02:11:10.105Z,80.13
2023-02-26T02:13:43.672Z,80.04
2023-02-26T02:16:23.701Z,80.01
2023-02-26T02:19:01.224Z,79.98
2023-02-26T02:22:09.223Z,79.54
2023-02-26T02:25:26.759Z,79.71
2023-02-26T02:28:33.539Z,79.92
2023-02-26T02:31:36.337Z,79.80
2023-02-26T02:34:11.876Z,79.84
2023-02-26T02:36:47.630Z,79.75
2023-02-26T02:39:22.261Z,79.91
2023-02-26T02:41:57.803Z,80.03
2023-02-26T02:44:26.799Z,80.11
2023-02-26T02:46:56.754Z,80.15
2023-02-26T02:49:42.002Z,80.11
2023-02-26T02:52:21.054Z,79.92
2023-02-26T02:55:13.577Z,80.20
2023-02-26T02:58:13.286Z,79.85
2023-02-26T03:00:44.667Z,79.69
2023-02-26T03:03:17.943Z,79.90
2023-02-26T03:05:46.568Z,79.68
2023-02-26T03:08:17.459Z,79.45
2023-02-26T03:10:51.172Z,79.20
2023-02-26T03:13:21.900Z,79.27
2023-02-26T03:16:08.667Z,79.33
2023-02-26T03:18:52.766Z,79.00
2023-02-26T03:21:50.750Z,78.79
2023-02-26T03:24:41.039Z,78.80
2023-02-26T03:27:24.265Z,78.99
2023-02-26T03:29:57.873Z,78.99
2023-02-26T03:32:44.043Z,78.96
2023-02-26T03:35:19.104Z,79.11
2023-02-26T03:37:52.209Z,78.93
2023-02-26T03:40:36.079Z,79.02
2023-02-26T03:43:19.370Z,79.36
2023-02-26T03:45:54.418Z,79.48
2023-02-26T03:48:23.613Z,79.50
2023-02-26T03:50:54.340Z,79.68
2023-02-26T03:54:06.345Z,79.55
2023-02-26T03:56:44.659Z,79.35
2023-02-26T03:59:51.453Z,79.68
2023-02-26T04:02:51.788Z,79.79
2023-02-26T04:05:23.532Z,79.73
2023-02-26T04:07:52.320Z,79.67
2023-02-26T04:10:29.917Z,79.68
2023-02-26T04:13:01.131Z,79.59
2023-02-26T04:15:29.852Z,79.79
2023-02-26T04:17:58.548Z,79.63
2023-02-26T04:20:27.023Z,79.67
2023-02-26T04:22:55.816Z,79.38
2023-02-26T04:25:24.708Z,79.35
2023-02-26T04:27:53.394Z,79.51
2023-02-26T04:30:22.614Z,79.63
2023-02-26T04:32:51.075Z,79.69
2023-02-26T04:35:19.559Z,79.77
2023-02-26T04:37:48.556Z,79.63
2023-02-26T04:40:17.445Z,79.80
2023-02-26T04:42:47.538Z,80.09
2023-02-26T04:45:19.838Z,80.36
2023-02-26T04:47:49.449Z,80.19
2023-02-26T04:50:18.148Z,80.29
2023-02-26T04:52:48.872Z,80.40
2023-02-26T04:55:17.766Z,80.57
2023-02-26T04:57:46.453Z,80.48
2023-02-26T05:00:15.854Z,80.47
2023-02-26T05:02:44.101Z,80.51
2023-02-26T05:05:12.515Z,80.84
2023-02-26T05:07:46.429Z,80.96
2023-02-26T05:10:17.268Z,80.82
2023-02-26T05:12:46.470Z,80.83
2023-02-26T05:15:16.594Z,80.57
2023-02-26T05:17:45.403Z,80.64
2023-02-26T05:20:15.709Z,80.52
2023-02-26T05:22:50.334Z,80.60
2023-02-26T05:25:19.328Z,80.51
2023-02-26T05:27:47.711Z,80.44
2023-02-26T05:30:16.707Z,80.48
2023-02-26T05:32:45.601Z,80.46
2023-02-26T05:35:14.898Z,80.43
2023-02-26T05:37:44.406Z,80.32
2023-02-26T05:40:13.443Z,80.03
2023-02-26T05:42:42.393Z,80.27
2023-02-26T05:45:12.126Z,80.05
2023-02-26T05:47:41.314Z,80.29
2023-02-26T05:50:10.746Z,80.16
2023-02-26T05:52:39.301Z,80.06
2023-02-26T05:55:10.666Z,80.27
2023-02-26T05:57:40.559Z,80.33
2023-02-26T06:00:09.857Z,80.15
2023-02-26T06:02:42.311Z,80.15
2023-02-26T06:05:10.823Z,79.81
2023-02-26T06:07:41.967Z,79.88
2023-02-26T06:10:11.297Z,79.89
2023-02-26T06:12:41.198Z,79.76
2023-02-26T06:15:10.999Z,79.73
2023-02-26T06:17:41.174Z,79.54
2023-02-26T06:20:10.946Z,79.44
2023-02-26T06:22:39.626Z,79.61
2023-02-26T06:25:08.753Z,79.83
2023-02-26T06:27:37.207Z,79.91
2023-02-26T06:30:06.548Z,79.59
2023-02-26T06:32:35.867Z,79.51
2023-02-26T06:35:06.546Z,79.52
2023-02-26T06:37:41.486Z,79.36
2023-02-26T06:40:12.124Z,79.11
2023-02-26T06:42:40.399Z,78.97
2023-02-26T06:45:09.460Z,79.08
2023-02-26T06:47:37.777Z,79.23
2023-02-26T06:50:07.084Z,79.14
2023-02-26T06:52:36.684Z,79.26
2023-02-26T06:55:05.788Z,79.05
2023-02-26T06:57:33.991Z,78.65
2023-02-26T07:00:02.807Z,78.65
2023-02-26T07:02:31.785Z,78.55
2023-02-26T07:05:05.680Z,78.44
2023-02-26T07:07:34.135Z,78.31
2023-02-26T07:10:02.516Z,78.10
2023-02-26T07:12:31.217Z,78.01
2023-02-26T07:14:59.583Z,78.07
2023-02-26T07:17:34.451Z,77.98
2023-02-26T07:20:06.710Z,77.89
2023-02-26T07:22:35.280Z,78.07
2023-02-26T07:25:05.101Z,77.79
2023-02-26T07:27:33.907Z,77.81
2023-02-26T07:30:02.466Z,77.34
2023-02-26T07:32:31.050Z,77.10
2023-02-26T07:34:59.324Z,77.14
2023-02-26T07:37:29.257Z,77.14
2023-02-26T07:39:57.518Z,77.05
2023-02-26T07:42:26.001Z,76.95
2023-02-26T07:44:55.104Z,77.11
2023-02-26T07:47:23.510Z,77.05
2023-02-26T07:49:52.198Z,77.21
2023-02-26T07:52:23.099Z,77.18
2023-02-26T07:54:51.391Z,77.19
2023-02-26T07:57:20.608Z,76.93
2023-02-26T07:59:48.967Z,76.89
2023-02-26T08:02:17.650Z,76.47
2023-02-26T08:04:46.135Z,75.90
2023-02-26T08:07:14.719Z,75.88
2023-02-26T08:09:44.532Z,75.54
2023-02-26T08:12:13.020Z,75.43
2023-02-26T08:14:43.154Z,74.90
2023-02-26T08:17:11.939Z,75.13
2023-02-26T08:19:40.409Z,75.30
2023-02-26T08:22:08.891Z,74.75
2023-02-26T08:24:37.998Z,74.27
2023-02-26T08:27:07.494Z,73.87
2023-02-26T08:29:40.092Z,74.03
2023-02-26T08:32:09.635Z,74.52
2023-02-26T08:34:39.191Z,74.54
2023-02-26T08:37:09.522Z,74.28
2023-02-26T08:39:39.260Z,74.70
2023-02-26T08:42:08.062Z,73.91
2023-02-26T08:44:38.446Z,74.26
2023-02-26T08:47:07.136Z,74.37
2023-02-26T08:49:36.130Z,74.21
2023-02-26T08:52:05.124Z,73.95
2023-02-26T08:54:34.119Z,74.06
2023-02-26T08:57:03.837Z,74.25
2023-02-26T08:59:32.212Z,73.16
2023-02-26T09:02:00.907Z,72.77
2023-02-26T09:04:31.200Z,72.27
2023-02-26T09:06:59.913Z,72.09
2023-02-26T09:09:32.395Z,71.39
2023-02-26T09:12:01.587Z,71.51
2023-02-26T09:14:30.081Z,71.13
2023-02-26T09:17:04.798Z,70.18
2023-02-26T09:19:33.177Z,69.99
2023-02-26T09:22:01.659Z,70.43
2023-02-26T09:24:30.781Z,70.04
2023-02-26T09:26:59.146Z,70.02
2023-02-26T09:29:27.514Z,70.54
2023-02-26T09:31:56.045Z,70.28
2023-02-26T09:34:24.810Z,69.71
2023-02-26T09:36:53.195Z,69.63
2023-02-26T09:39:21.765Z,69.39
2023-02-26T09:41:52.531Z,69.38
2023-02-26T09:44:24.860Z,69.16
2023-02-26T09:47:03.289Z,68.32
2023-02-26T09:49:44.154Z,68.31
2023-02-26T09:52:21.852Z,68.57
2023-02-26T09:54:53.519Z,69.13
2023-02-26T09:57:33.364Z,68.80
2023-02-26T10:00:02.144Z,69.14
2023-02-26T10:03:10.233Z,68.95
2023-02-26T10:05:45.506Z,69.09
2023-02-26T10:08:18.420Z,69.80
2023-02-26T10:10:51.574Z,70.23
2023-02-26T10:13:57.603Z,69.90
2023-02-26T10:16:32.609Z,69.59
2023-02-26T10:19:07.262Z,69.17
2023-02-26T10:22:06.234Z,68.21
2023-02-26T10:24:43.665Z,68.03
2023-02-26T10:27:16.678Z,68.04
2023-02-26T10:29:49.967Z,67.52
2023-02-26T10:32:35.484Z,67.29
2023-02-26T10:35:09.358Z,67.15
2023-02-26T10:37:59.661Z,66.75
2023-02-26T10:40:42.661Z,65.39
2023-02-26T10:43:15.162Z,65.92
2023-02-26T10:45:58.023Z,65.96
2023-02-26T10:48:49.079Z,65.46
2023-02-26T10:51:28.244Z,65.71
2023-02-26T10:54:21.882Z,65.96
2023-02-26T10:56:50.264Z,65.66
2023-02-26T10:59:21.641Z,66.13
2023-02-26T11:01:51.246Z,66.49
2023-02-26T11:04:23.554Z,65.89
2023-02-26T11:07:03.298Z,64.88
2023-02-26T11:09:39.612Z,64.65
2023-02-26T11:12:15.276Z,64.85
2023-02-26T11:14:47.534Z,64.48
2023-02-26T11:17:28.217Z,64.03
2023-02-26T11:20:02.740Z,64.36
2023-02-26T11:22:33.482Z,63.84
2023-02-26T11:25:04.507Z,63.63
2023-02-26T11:27:36.264Z,63.93
2023-02-26T11:30:15.471Z,63.51
2023-02-26T11:32:45.890Z,62.81
2023-02-26T11:35:15.445Z,62.65
2023-02-26T11:37:48.235Z,62.73
2023-02-26T11:40:19.048Z,62.33
2023-02-26T11:42:51.624Z,62.26
2023-02-26T11:45:20.624Z,61.97
2023-02-26T11:49:00.710Z,61.28
2023-02-26T11:51:29.604Z,61.21
2023-02-26T11:54:02.206Z,60.72
2023-02-26T11:56:39.444Z,60.64
2023-02-26T11:59:16.928Z,61.06
2023-02-26T12:01:45.717Z,61.19
2023-02-26T12:04:15.266Z,60.42
2023-02-26T12:06:44.320Z,60.59
2023-02-26T12:09:14.133Z,60.33
2023-02-26T12:11:52.238Z,60.86
2023-02-26T12:15:01.581Z,61.32
2023-02-26T12:17:40.914Z,61.64
2023-02-26T12:20:19.442Z,61.30
2023-02-26T12:23:06.242Z,60.98
2023-02-26T12:25:53.362Z,61.12
2023-02-26T12:28:48.685Z,61.12
2023-02-26T12:31:40.682Z,61.11
2023-02-26T12:34:24.750Z,60.47
2023-02-26T12:37:19.153Z,60.41
2023-02-26T12:39:56.293Z,60.62
2023-02-26T12:42:37.621Z,60.79
2023-02-26T12:45:11.845Z,60.22
2023-02-26T12:48:06.637Z,60.12
2023-02-26T12:51:04.332Z,59.89
2023-02-26T12:54:00.544Z,59.46
2023-02-26T12:56:33.627Z,59.51
2023-02-26T12:59:27.915Z,59.56
2023-02-26T13:02:09.747Z,58.64
2023-02-26T13:05:00.362Z,58.19
2023-02-26T13:07:59.118Z,57.85
2023-02-26T13:10:43.566Z,58.03
2023-02-26T13:13:50.247Z,58.26
2023-02-26T13:16:37.183Z,57.97
2023-02-26T13:19:17.109Z,58.08
2023-02-26T13:21:48.666Z,58.15
2023-02-26T13:24:25.394Z,57.91
2023-02-26T13:26:54.031Z,57.98
2023-02-26T13:29:27.921Z,58.79
2023-02-26T13:32:01.307Z,58.36
2023-02-26T13:34:51.221Z,58.76
2023-02-26T13:37:28.846Z,59.28
2023-02-26T13:40:01.708Z,59.69
2023-02-26T13:42:41.046Z,60.04
2023-02-26T13:45:22.526Z,59.70
2023-02-26T13:48:09.614Z,59.27
2023-02-26T13:50:44.200Z,59.38
2023-02-26T13:53:29.343Z,59.04
2023-02-26T13:56:16.673Z,58.89
2023-02-26T13:59:00.815Z,58.75
2023-02-26T14:01:33.445Z,58.28
2023-02-26T14:04:22.646Z,58.47
2023-02-26T14:06:59.450Z,58.90
2023-02-26T14:09:36.835Z,59.62
2023-02-26T14:12:18.555Z,60.02
2023-02-26T14:15:00.422Z,60.23
2023-02-26T14:17:39.859Z,60.33
2023-02-26T14:20:23.800Z,59.83
2023-02-26T14:23:10.012Z,60.14
2023-02-26T14:25:50.027Z,60.27
2023-02-26T14:28:33.686Z,60.15
2023-02-26T14:31:11.417Z,60.07
2023-02-26T14:33:45.710Z,60.33
2023-02-26T14:36:20.628Z,60.69
2023-02-26T14:38:49.327Z,60.88
2023-02-26T14:41:24.117Z,60.84
2023-02-26T14:44:01.463Z,60.98
2023-02-26T14:46:30.116Z,61.76
2023-02-26T14:48:58.624Z,62.34
2023-02-26T14:52:21.989Z,62.42
2023-02-26T14:55:12.393Z,62.90
2023-02-26T14:58:06.065Z,63.08
2023-02-26T15:00:46.013Z,63.38
2023-02-26T15:03:38.252Z,63.57
2023-02-26T15:06:07.969Z,63.88
2023-02-26T15:08:57.133Z,63.97
2023-02-26T15:11:35.755Z,64.04
2023-02-26T15:15:01.076Z,63.93
2023-02-26T15:17:41.326Z,64.18
2023-02-26T15:20:54.149Z,64.18
2023-02-26T15:23:37.889Z,64.22
2023-02-26T15:26:06.992Z,64.38
2023-02-26T15:28:42.422Z,64.41
2023-02-26T15:31:13.518Z,64.41
2023-02-26T15:33:42.373Z,64.47
2023-02-26T15:36:17.096Z,64.69
2023-02-26T15:38:49.995Z,64.88
2023-02-26T15:41:18.977Z,64.87
2023-02-26T15:43:52.906Z,65.05
2023-02-26T15:46:23.593Z,65.04
2023-02-26T15:48:52.718Z,65.02
2023-02-26T15:51:22.310Z,64.89
2023-02-26T15:53:51.831Z,64.98
2023-02-26T15:56:23.123Z,64.91
2023-02-26T15:58:55.140Z,64.99
2023-02-26T16:01:25.117Z,65.08
2023-02-26T16:03:56.904Z,65.16
2023-02-26T16:06:29.521Z,65.19
2023-02-26T16:09:01.058Z,65.29
2023-02-26T16:11:33.806Z,65.22
2023-02-26T16:14:02.801Z,65.18
2023-02-26T16:16:52.420Z,65.36
2023-02-26T16:19:29.497Z,65.15
2023-02-26T16:21:58.597Z,65.15
2023-02-26T16:24:27.592Z,65.22
2023-02-26T16:26:57.904Z,65.14
2023-02-26T16:29:29.101Z,65.07
2023-02-26T16:32:00.739Z,65.06
2023-02-26T16:34:39.834Z,65.14
2023-02-26T16:37:27.779Z,65.50
2023-02-26T16:39:59.529Z,65.77
2023-02-26T16:42:45.212Z,66.04
2023-02-26T16:45:35.523Z,66.38
2023-02-26T16:48:31.849Z,66.57
2023-02-26T16:51:03.194Z,66.70
2023-02-26T16:53:48.777Z,66.89
2023-02-26T16:56:19.621Z,66.89
2023-02-26T16:58:51.777Z,67.00
2023-02-26T17:01:20.569Z,67.07
2023-02-26T17:03:51.023Z,67.33
2023-02-26T17:06:20.707Z,67.31
2023-02-26T17:08:54.122Z,67.45
2023-02-26T17:11:33.393Z,67.73
2023-02-26T17:14:23.727Z,67.75
2023-02-26T17:16:56.819Z,67.93
2023-02-26T17:19:28.575Z,67.81
2023-02-26T17:21:58.108Z,67.98
2023-02-26T17:24:44.425Z,68.08
2023-02-26T17:27:42.890Z,68.15
2023-02-26T17:30:16.372Z,68.27
2023-02-26T17:32:45.861Z,68.44
2023-02-26T17:35:20.509Z,68.52
2023-02-26T17:37:49.290Z,68.74
2023-02-26T17:40:24.060Z,69.06
2023-02-26T17:42:52.912Z,69.21
2023-02-26T17:45:21.494Z,69.42
2023-02-26T17:47:50.590Z,69.63
2023-02-26T17:50:38.017Z,69.73
2023-02-26T17:53:06.819Z,69.98
2023-02-26T17:55:37.749Z,70.16
2023-02-26T17:58:24.255Z,70.43
2023-02-26T18:00:53.427Z,70.38
2023-02-26T18:03:22.049Z,70.43
2023-02-26T18:05:51.654Z,70.41
2023-02-26T18:08:25.382Z,70.86
2023-02-26T18:10:53.849Z,70.89
2023-02-26T18:13:23.857Z,71.12
2023-02-26T18:15:54.386Z,71.34
2023-02-26T18:18:23.277Z,71.60
2023-02-26T18:20:53.010Z,71.57
2023-02-26T18:23:21.476Z,71.62
2023-02-26T18:25:51.020Z,71.78
2023-02-26T18:28:24.400Z,71.74
2023-02-26T18:30:54.354Z,71.80
2023-02-26T18:33:25.225Z,72.02
2023-02-26T18:35:56.269Z,72.03
2023-02-26T18:38:27.832Z,72.34
2023-02-26T18:40:59.071Z,72.52
2023-02-26T18:43:28.063Z,72.56
2023-02-26T18:46:01.585Z,72.90
2023-02-26T18:48:30.970Z,73.06
2023-02-26T18:51:00.785Z,73.11
2023-02-26T18:53:31.215Z,73.01
2023-02-26T18:56:00.319Z,73.00
2023-02-26T18:58:29.611Z,72.92
2023-02-26T19:01:05.012Z,72.81
2023-02-26T19:03:34.066Z,72.67
2023-02-26T19:06:04.464Z,72.59
2023-02-26T19:08:36.749Z,72.34
2023-02-26T19:11:05.537Z,72.64
2023-02-26T19:13:38.223Z,72.62
2023-02-26T19:16:07.121Z,72.58
2023-02-26T19:18:35.595Z,72.50
2023-02-26T19:21:06.130Z,72.64
2023-02-26T19:23:37.070Z,72.63
2023-02-26T19:26:05.855Z,72.58
2023-02-26T19:28:34.553Z,72.60
2023-02-26T19:31:07.110Z,72.67
2023-02-26T19:33:36.219Z,72.45
2023-02-26T19:36:08.289Z,72.36
2023-02-26T19:38:37.387Z,72.55
2023-02-26T19:41:05.968Z,72.42
2023-02-26T19:43:35.270Z,72.04
2023-02-26T19:46:04.163Z,71.70
2023-02-26T19:48:32.857Z,71.56
2023-02-26T19:51:03.279Z,71.30
2023-02-26T19:53:35.138Z,71.12
2023-02-26T19:56:05.733Z,71.25
2023-02-26T19:58:36.199Z,71.08
2023-02-26T20:01:05.240Z,71.18
2023-02-26T20:03:36.950Z,70.83
2023-02-26T20:06:08.481Z,70.67
2023-02-26T20:08:36.990Z,70.73
2023-02-26T20:11:05.678Z,70.57
2023-02-26T20:13:35.694Z,70.45
2023-02-26T20:16:05.885Z,70.41
2023-02-26T20:18:35.323Z,70.21
2023-02-26T20:21:09.048Z,69.98
2023-02-26T20:23:39.662Z,69.91
2023-02-26T20:26:11.838Z,69.65
2023-02-26T20:28:40.833Z,69.39
2023-02-26T20:31:09.991Z,69.53
2023-02-26T20:33:44.023Z,69.21
2023-02-26T20:36:12.928Z,69.03
2023-02-26T20:38:43.185Z,69.05
2023-02-26T20:41:11.735Z,69.07
2023-02-26T20:43:40.117Z,69.11
2023-02-26T20:46:09.829Z,68.98
2023-02-26T20:48:41.891Z,68.94
2023-02-26T20:51:12.270Z,68.79
2023-02-26T20:53:41.213Z,68.87
2023-02-26T20:56:12.665Z,68.85
2023-02-26T20:58:42.480Z,69.03
2023-02-26T21:01:11.721Z,68.95
2023-02-26T21:03:40.678Z,69.03
2023-02-26T21:06:10.904Z,69.09
2023-02-26T21:08:41.347Z,69.10
2023-02-26T21:11:10.313Z,68.86
2023-02-26T21:13:40.030Z,68.86
2023-02-26T21:16:08.770Z,68.77
2023-02-26T21:18:37.197Z,68.74
2023-02-26T21:21:07.320Z,68.78
2023-02-26T21:23:35.901Z,68.68
2023-02-26T21:26:04.495Z,68.55
2023-02-26T21:28:34.309Z,68.41
2023-02-26T21:31:03.310Z,68.39
2023-02-26T21:33:32.544Z,68.33
2023-02-26T21:36:01.494Z,68.50
2023-02-26T21:38:31.302Z,68.54
2023-02-26T21:40:59.887Z,68.37
2023-02-26T21:43:28.372Z,68.28
2023-02-26T21:45:56.755Z,68.14
2023-02-26T21:48:26.459Z,68.32
2023-02-26T21:50:56.888Z,68.17
2023-02-26T21:53:27.320Z,68.44
2023-02-26T21:55:57.130Z,68.36
2023-02-26T21:58:25.932Z,68.40
2023-02-26T22:00:54.571Z,68.40
2023-02-26T22:03:23.092Z,68.40
2023-02-26T22:05:52.903Z,68.46
2023-02-26T22:08:21.689Z,68.69
2023-02-26T22:10:50.174Z,68.58
2023-02-26T22:13:19.170Z,68.75
2023-02-26T22:15:47.544Z,68.95
2023-02-26T22:18:16.562Z,68.92
2023-02-26T22:20:45.023Z,68.90
2023-02-26T22:23:14.017Z,68.93
2023-02-26T22:25:42.401Z,68.97
2023-02-26T22:28:10.780Z,68.82
2023-02-26T22:30:39.888Z,68.76
2023-02-26T22:33:08.362Z,68.90
2023-02-26T22:35:37.458Z,68.78
2023-02-26T22:38:06.355Z,68.77
2023-02-26T22:40:34.732Z,68.84
2023-02-26T22:43:03.241Z,69.12
2023-02-26T22:45:33.338Z,69.30
2023-02-26T22:48:02.844Z,69.26
2023-02-26T22:50:31.327Z,69.30
2023-02-26T22:53:00.223Z,69.50
2023-02-26T22:55:28.819Z,69.39
2023-02-26T22:57:57.596Z,69.25
2023-02-26T23:00:25.976Z,69.38
2023-02-26T23:02:55.276Z,69.60
2023-02-26T23:05:23.658Z,69.52
2023-02-26T23:07:53.272Z,69.38
2023-02-26T23:10:22.262Z,69.49
2023-02-26T23:12:50.646Z,69.46
2023-02-26T23:15:19.023Z,69.49
2023-02-26T23:17:47.509Z,69.74
2023-02-26T23:20:16.911Z,69.64
2023-02-26T23:22:45.495Z,69.34
2023-02-26T23:25:16.751Z,69.54
2023-02-26T23:27:47.997Z,69.86
2023-02-26T23:30:22.013Z,69.75
2023-02-26T23:32:51.011Z,69.65
2023-02-26T23:35:23.073Z,69.54
2023-02-26T23:37:51.855Z,69.52
2023-02-26T23:40:20.253Z,69.26
2023-02-26T23:42:49.740Z,68.89
2023-02-26T23:45:18.120Z,68.77
2023-02-26T23:47:47.524Z,68.17
2023-02-26T23:50:21.332Z,67.79
2023-02-26T23:52:50.658Z,67.67
2023-02-26T23:55:19.219Z,67.81
2023-02-26T23:57:48.832Z,67.69
